Time;durP1;ratioP1;P1;durP2;ratioP2;P2;SDS_P1;SDS_P2;PMS_P1;PMS_P2;Temp;Humidity;BMP_temperature;BMP_pressure;BME280_temperature;BME280_humidity;BME280_pressure;Samples;Min_cycle;Max_cycle;Signal;HPM_P1;HPM_P2
2022/04/30 00:00:58;;;;;;;4.28;3.78;;;20.60;44.50;;;;;;4999418;28;20571;-68
2022/04/30 00:03:27;;;;;;;4.28;3.88;;;20.50;44.40;;;;;;4999382;28;20208;-67
2022/04/30 00:05:56;;;;;;;4.25;3.90;;;20.50;44.50;;;;;;4999386;28;20693;-67
2022/04/30 00:08:23;;;;;;;4.28;3.88;;;20.50;44.40;;;;;;4999147;28;20732;-68
2022/04/30 00:10:50;;;;;;;4.72;3.70;;;20.50;44.50;;;;;;4999210;28;20205;-67
2022/04/30 00:13:17;;;;;;;3.92;3.63;;;20.50;44.60;;;;;;5017149;28;20272;-68
2022/04/30 00:15:44;;;;;;;4.10;3.80;;;20.50;44.50;;;;;;5015416;28;20681;-68
2022/04/30 00:18:11;;;;;;;4.18;3.80;;;20.50;44.60;;;;;;4999027;28;20743;-67
2022/04/30 00:20:38;;;;;;;3.80;3.50;;;20.40;44.60;;;;;;4998982;28;20661;-68
2022/04/30 00:23:19;;;;;;;3.97;3.67;;;20.40;44.60;;;;;;4999226;28;20193;-68
2022/04/30 00:25:48;;;;;;;4.43;4.03;;;20.40;44.50;;;;;;5021937;28;20185;-68
2022/04/30 00:28:15;;;;;;;4.60;4.22;;;20.50;44.70;;;;;;5001219;28;20319;-68
2022/04/30 00:30:43;;;;;;;4.53;4.20;;;20.40;44.60;;;;;;5001036;28;20295;-68
2022/04/30 00:33:10;;;;;;;3.90;3.60;;;20.40;44.60;;;;;;5016666;28;20193;-68
2022/04/30 00:35:37;;;;;;;4.00;3.70;;;20.40;44.60;;;;;;5016405;28;20189;-68
2022/04/30 00:38:04;;;;;;;4.40;4.10;;;20.40;44.70;;;;;;4998249;28;20232;-68
2022/04/30 00:40:33;;;;;;;4.72;4.32;;;20.40;44.70;;;;;;4998745;28;20366;-68
2022/04/30 00:43:00;;;;;;;3.72;3.42;;;20.40;44.70;;;;;;4998800;28;20733;-68
2022/04/30 00:45:27;;;;;;;3.90;3.60;;;20.40;44.70;;;;;;4998875;28;20196;-67
2022/04/30 00:47:55;;;;;;;4.47;4.13;;;20.30;44.60;;;;;;5014727;28;20217;-68
2022/04/30 00:50:22;;;;;;;4.43;4.13;;;20.30;44.60;;;;;;4999042;28;20205;-68
2022/04/30 00:52:49;;;;;;;4.50;4.13;;;20.30;44.70;;;;;;4997905;28;20303;-68
2022/04/30 00:55:16;;;;;;;4.13;3.83;;;20.30;44.70;;;;;;4998543;28;20197;-68
2022/04/30 00:57:44;;;;;;;4.00;3.70;;;20.30;44.80;;;;;;4998191;28;20229;-68
2022/04/30 01:00:12;;;;;;;6.35;4.20;;;20.30;45.30;;;;;;5014678;28;20207;-68
2022/04/30 01:02:55;;;;;;;4.18;3.85;;;20.30;44.80;;;;;;4998109;28;20188;-67
2022/04/30 01:05:40;;;;;;;4.03;3.70;;;20.30;44.80;;;;;;5016455;28;20193;-67
2022/04/30 01:08:08;;;;;;;4.40;4.00;;;20.30;44.90;;;;;;4998332;28;20217;-68
2022/04/30 01:10:35;;;;;;;4.40;4.03;;;20.30;44.90;;;;;;4998133;28;20228;-68
2022/04/30 01:13:03;;;;;;;4.30;4.00;;;20.30;44.90;;;;;;5015670;28;20630;-68
2022/04/30 01:15:31;;;;;;;4.20;3.80;;;20.30;45.00;;;;;;4998106;28;20204;-67
2022/04/30 01:17:58;;;;;;;4.32;3.92;;;20.20;44.90;;;;;;4998174;28;20240;-68
2022/04/30 01:20:25;;;;;;;4.35;4.05;;;20.20;44.90;;;;;;4998211;28;20296;-68
2022/04/30 01:22:58;;;;;;;4.05;3.75;;;20.20;45.00;;;;;;5015719;28;20188;-68
2022/04/30 01:25:26;;;;;;;4.25;3.70;;;20.20;44.90;;;;;;4998150;28;20204;-68
2022/04/30 01:27:53;;;;;;;4.10;3.80;;;20.20;44.90;;;;;;4997868;28;20223;-67
2022/04/30 01:30:20;;;;;;;4.63;4.25;;;20.20;45.00;;;;;;4997795;28;20201;-68
2022/04/30 01:38:17;;;;;;;4.07;3.78;;;20.10;44.90;;;;;;4997413;28;20229;-67
2022/04/30 01:40:44;;;;;;;4.65;4.25;;;20.10;44.90;;;;;;5015080;28;20196;-68
2022/04/30 01:43:10;;;;;;;4.85;4.43;;;20.10;44.90;;;;;;5015391;28;20185;-67
2022/04/30 01:45:38;;;;;;;4.75;4.35;;;20.10;44.90;;;;;;4998056;28;20201;-68
2022/04/30 01:48:05;;;;;;;4.45;4.15;;;20.10;45.00;;;;;;4997842;28;20223;-68
2022/04/30 01:50:33;;;;;;;4.53;4.22;;;20.10;45.00;;;;;;5015372;28;20584;-68
2022/04/30 01:53:00;;;;;;;4.28;3.97;;;20.10;45.00;;;;;;4997621;28;20197;-68
2022/04/30 01:55:29;;;;;;;4.45;4.05;;;20.10;45.00;;;;;;4997960;28;20208;-68
2022/04/30 01:58:01;;;;;;;4.78;4.32;;;20.10;45.00;;;;;;5013448;28;20311;-68
2022/04/30 02:00:29;;;;;;;4.18;3.90;;;20.10;45.70;;;;;;4997195;28;20643;-68
2022/04/30 02:02:56;;;;;;;4.85;4.47;;;20.00;45.00;;;;;;4997031;28;20216;-68
2022/04/30 02:05:23;;;;;;;5.07;4.68;;;20.10;45.10;;;;;;5015119;28;20272;-68
2022/04/30 02:07:52;;;;;;;5.00;4.60;;;20.10;45.10;;;;;;4998925;28;20217;-70
2022/04/30 02:10:19;;;;;;;5.45;4.95;;;20.10;45.20;;;;;;4999162;28;20296;-67
2022/04/30 02:12:48;;;;;;;5.35;4.93;;;20.00;45.10;;;;;;5014815;28;20196;-68
2022/04/30 02:15:15;;;;;;;4.72;4.32;;;20.00;45.20;;;;;;4997065;28;20207;-68
2022/04/30 02:17:42;;;;;;;6.97;5.10;;;20.10;45.30;;;;;;4997109;28;20228;-68
2022/04/30 02:20:29;;;;;;;5.85;4.72;;;20.00;45.20;;;;;;5014757;28;20564;-67
2022/04/30 02:22:57;;;;;;;4.93;4.47;;;20.00;45.30;;;;;;5014754;28;20256;-68
2022/04/30 02:25:24;;;;;;;5.40;4.80;;;20.00;45.30;;;;;;4996814;28;20669;-67
2022/04/30 02:27:53;;;;;;;5.30;4.80;;;20.00;45.30;;;;;;5014341;28;20242;-67
2022/04/30 02:30:21;;;;;;;5.10;4.60;;;20.00;45.30;;;;;;4996770;28;20673;-68
2022/04/30 02:32:49;;;;;;;5.32;4.85;;;20.00;45.30;;;;;;5014533;28;20193;-68
2022/04/30 02:35:16;;;;;;;5.30;4.80;;;20.00;45.30;;;;;;5014030;28;20193;-68
2022/04/30 02:37:45;;;;;;;5.18;4.68;;;20.00;45.40;;;;;;4996935;28;20601;-68
2022/04/30 02:40:14;;;;;;;5.53;5.03;;;20.00;45.50;;;;;;4996555;28;20285;-67
2022/04/30 02:42:41;;;;;;;4.80;4.40;;;20.00;45.50;;;;;;4996915;28;20219;-68
2022/04/30 02:45:11;;;;;;;5.18;4.78;;;20.00;45.60;;;;;;4996597;28;20197;-67
2022/04/30 02:47:38;;;;;;;5.05;4.60;;;20.00;45.60;;;;;;5012819;28;20235;-67
2022/04/30 02:50:06;;;;;;;5.60;5.10;;;20.00;45.50;;;;;;4999984;28;20197;-68
2022/04/30 02:52:33;;;;;;;4.82;4.43;;;20.00;45.50;;;;;;5016093;28;20203;-68
2022/04/30 02:55:00;;;;;;;5.65;5.18;;;20.00;45.50;;;;;;4997573;28;20205;-68
2022/04/30 02:57:39;;;;;;;5.22;4.82;;;20.00;45.60;;;;;;4996664;28;20208;-68
2022/04/30 03:00:06;;;;;;;5.57;5.07;;;20.00;45.70;;;;;;5012794;28;20189;-68
2022/04/30 03:02:59;;;;;;;5.22;4.82;;;20.00;45.70;;;;;;5013988;28;20192;-68
2022/04/30 03:05:27;;;;;;;6.22;5.60;;;19.90;45.60;;;;;;4996476;28;20299;-68
2022/04/30 03:07:54;;;;;;;6.35;5.80;;;19.90;45.60;;;;;;5013726;28;20255;-68
2022/04/30 03:10:21;;;;;;;4.85;4.53;;;20.00;45.70;;;;;;5013916;28;20189;-68
2022/04/30 03:12:49;;;;;;;5.28;4.78;;;20.00;45.70;;;;;;5013789;28;20200;-68
2022/04/30 03:15:19;;;;;;;5.10;4.70;;;19.90;45.70;;;;;;4996043;28;20204;-68
2022/04/30 03:23:16;;;;;;;4.88;4.43;;;19.90;45.70;;;;;;5014049;28;20259;-68
2022/04/30 03:25:44;;;;;;;5.15;4.75;;;20.00;45.70;;;;;;5013692;28;20219;-67
2022/04/30 03:28:11;;;;;;;5.38;4.90;;;20.00;45.70;;;;;;5014722;28;20208;-68
2022/04/30 03:30:40;;;;;;;5.53;5.03;;;20.00;45.70;;;;;;4995987;28;20197;-68
2022/04/30 03:33:08;;;;;;;5.80;5.30;;;20.00;45.70;;;;;;5013880;28;20199;-67
2022/04/30 03:35:38;;;;;;;4.85;4.55;;;20.00;45.70;;;;;;4996117;28;20713;-68
2022/04/30 03:38:06;;;;;;;5.90;5.38;;;20.00;45.70;;;;;;4995630;28;20256;-68
2022/04/30 03:40:34;;;;;;;5.97;5.28;;;20.00;45.60;;;;;;5029930;23;20260;-68
2022/04/30 03:43:01;;;;;;;6.28;5.68;;;20.00;45.50;;;;;;4976795;28;20312;-68
2022/04/30 03:45:28;;;;;;;6.18;5.68;;;20.00;45.50;;;;;;4976371;28;20208;-68
2022/04/30 03:47:55;;;;;;;5.90;5.40;;;20.00;45.30;;;;;;4992507;28;20198;-68
2022/04/30 03:50:22;;;;;;;5.63;5.13;;;20.10;45.40;;;;;;4992357;28;20300;-68
2022/04/30 03:52:50;;;;;;;6.55;5.95;;;20.10;45.30;;;;;;4993638;28;20193;-68
2022/04/30 03:55:17;;;;;;;6.28;5.07;;;20.10;45.30;;;;;;4976407;28;20552;-68
2022/04/30 03:57:44;;;;;;;6.47;5.90;;;20.10;45.30;;;;;;4976139;28;20220;-68
2022/04/30 04:00:12;;;;;;;5.68;5.18;;;20.10;45.30;;;;;;4976101;28;20222;-68
2022/04/30 04:02:42;;;;;;;6.45;5.85;;;20.10;45.30;;;;;;4993969;28;20174;-68
2022/04/30 04:05:10;;;;;;;6.95;6.00;;;20.10;45.30;;;;;;4976424;28;20292;-68
2022/04/30 04:07:37;;;;;;;6.28;5.70;;;20.10;45.30;;;;;;4976926;28;20296;-69
2022/04/30 04:10:07;;;;;;;6.18;5.68;;;20.10;45.30;;;;;;4992571;28;20270;-68
2022/04/30 04:12:33;;;;;;;5.40;4.97;;;20.10;45.30;;;;;;4992586;28;20201;-68
2022/04/30 04:17:45;;;;;;;6.95;6.18;;;20.10;45.30;;;;;;4977447;28;20213;-68
2022/04/30 04:20:13;;;;;;;6.22;5.70;;;20.20;45.30;;;;;;4976684;28;20217;-68
2022/04/30 04:22:41;;;;;;;5.20;4.72;;;20.20;45.40;;;;;;4994054;28;20197;-68
2022/04/30 04:27:55;;;;;;;5.95;5.30;;;20.10;45.20;;;;;;4979749;28;20195;-69
2022/04/30 04:30:22;;;;;;;5.60;5.10;;;20.20;45.30;;;;;;4980386;28;20225;-69
2022/04/30 04:32:49;;;;;;;6.65;5.75;;;20.20;45.20;;;;;;4980889;28;20229;-69
2022/04/30 04:35:17;;;;;;;5.47;4.72;;;20.20;45.20;;;;;;4997391;28;20208;-69
2022/04/30 04:37:44;;;;;;;6.53;5.35;;;20.20;45.20;;;;;;4979697;28;20241;-69
2022/04/30 04:40:14;;;;;;;6.55;5.90;;;20.20;45.20;;;;;;4995545;28;20225;-69
2022/04/30 04:42:42;;;;;;;6.25;5.75;;;20.20;45.10;;;;;;4979478;28;20746;-70
2022/04/30 04:45:09;;;;;;;6.97;6.35;;;20.20;45.30;;;;;;4979816;28;20268;-66
2022/04/30 04:47:36;;;;;;;5.90;5.40;;;20.20;45.30;;;;;;5068890;23;20240;-67
2022/04/30 04:50:04;;;;;;;6.07;5.47;;;20.20;45.30;;;;;;4999610;28;20644;-67
2022/04/30 04:52:31;;;;;;;8.15;7.35;;;20.30;45.50;;;;;;5091504;23;20244;-71
2022/04/30 04:54:58;;;;;;;6.80;6.10;;;20.30;45.60;;;;;;4996419;28;20193;-71
2022/04/30 04:57:26;;;;;;;6.10;5.50;;;20.30;45.60;;;;;;4996513;28;20732;-71
2022/04/30 04:59:54;;;;;;;6.53;5.90;;;20.30;45.90;;;;;;4998422;28;20221;-71
2022/04/30 05:02:21;;;;;;;7.88;7.18;;;20.30;45.80;;;;;;5011427;28;20197;-71
2022/04/30 05:04:48;;;;;;;7.03;6.32;;;20.30;45.90;;;;;;4995088;28;20252;-71
2022/04/30 05:07:15;;;;;;;6.88;6.20;;;20.30;46.00;;;;;;5011318;28;20201;-71
2022/04/30 05:09:42;;;;;;;6.75;6.07;;;20.30;46.00;;;;;;4995353;28;20214;-71
2022/04/30 05:12:10;;;;;;;6.32;5.82;;;20.40;46.20;;;;;;4994926;28;20201;-71
2022/04/30 05:14:38;;;;;;;6.50;5.90;;;20.40;46.30;;;;;;5110425;23;20275;-71
2022/04/30 05:17:06;;;;;;;6.68;6.07;;;20.40;46.10;;;;;;5015852;28;20192;-72
2022/04/30 05:19:33;;;;;;;5.85;5.25;;;20.40;46.10;;;;;;4998218;28;20217;-72
2022/04/30 05:25:13;;;;;;;8.00;6.95;;;20.40;46.10;;;;;;4975834;28;20233;-69
2022/04/30 05:27:44;;;;;;;7.10;6.00;;;20.40;46.10;;;;;;4993159;28;20267;-72
2022/04/30 05:30:14;;;;;;;7.07;6.38;;;20.40;46.20;;;;;;4975140;28;20225;-69
2022/04/30 05:32:41;;;;;;;7.28;6.60;;;20.50;46.20;;;;;;4975098;28;20198;-70
2022/04/30 05:35:09;;;;;;;7.50;6.60;;;20.50;46.80;;;;;;4976480;28;20284;-70
2022/04/30 05:37:36;;;;;;;8.13;7.15;;;20.40;46.10;;;;;;4991437;28;20206;-69
2022/04/30 05:40:03;;;;;;;5.82;5.22;;;20.50;46.20;;;;;;4974881;28;20268;-70
2022/04/30 05:42:30;;;;;;;5.85;5.35;;;20.50;46.20;;;;;;4990934;28;20656;-70
2022/04/30 05:44:58;;;;;;;5.97;5.45;;;20.40;46.10;;;;;;4976052;28;20194;-68
2022/04/30 05:47:27;;;;;;;6.22;5.72;;;20.50;46.20;;;;;;4991103;28;20702;-70
2022/04/30 05:49:53;;;;;;;6.40;5.85;;;20.50;46.20;;;;;;4976265;28;20674;-70
2022/04/30 05:52:21;;;;;;;7.30;6.60;;;20.50;46.20;;;;;;5383359;23;21295;-68
2022/04/30 05:54:48;;;;;;;7.32;6.13;;;20.50;46.20;;;;;;5132416;23;20228;-68
2022/04/30 05:57:16;;;;;;;6.82;6.13;;;20.50;46.00;;;;;;4997414;28;20580;-65
2022/04/30 05:59:43;;;;;;;6.10;5.47;;;20.50;46.00;;;;;;5013713;28;20229;-65
2022/04/30 06:02:10;;;;;;;6.25;5.55;;;20.50;45.90;;;;;;5015436;28;20192;-65
2022/04/30 06:04:39;;;;;;;7.25;6.63;;;20.50;45.80;;;;;;4997419;28;20251;-66
2022/04/30 06:07:06;;;;;;;8.40;7.15;;;20.60;45.90;;;;;;4998353;28;20292;-67
2022/04/30 06:09:33;;;;;;;6.90;6.25;;;20.50;45.80;;;;;;4999273;28;20248;-67
2022/04/30 06:12:00;;;;;;;7.80;7.05;;;20.60;45.90;;;;;;4998313;28;20204;-67
2022/04/30 06:14:28;;;;;;;6.72;6.20;;;20.60;46.00;;;;;;5015015;28;20239;-66
2022/04/30 06:16:55;;;;;;;6.90;6.30;;;20.60;45.70;;;;;;5014652;28;20197;-67
2022/04/30 06:19:22;;;;;;;6.90;6.15;;;20.60;45.80;;;;;;4997234;28;20243;-67
2022/04/30 06:21:51;;;;;;;7.00;6.40;;;20.60;46.00;;;;;;4997406;28;20285;-66
2022/04/30 06:24:18;;;;;;;6.57;5.88;;;20.60;45.90;;;;;;4997331;28;20576;-66
2022/04/30 06:26:45;;;;;;;6.82;6.22;;;20.70;45.90;;;;;;4997795;28;20201;-67
2022/04/30 06:29:13;;;;;;;7.47;6.65;;;20.70;45.80;;;;;;4997092;28;20576;-66
2022/04/30 06:31:40;;;;;;;6.97;6.30;;;20.70;45.80;;;;;;4996919;28;20200;-67
2022/04/30 06:34:07;;;;;;;6.63;6.03;;;20.70;45.80;;;;;;4998134;28;20200;-67
2022/04/30 06:36:34;;;;;;;6.80;6.20;;;20.70;45.70;;;;;;4997267;28;20229;-67
2022/04/30 06:39:02;;;;;;;6.55;5.90;;;20.80;45.70;;;;;;4996920;28;20212;-67
2022/04/30 06:41:29;;;;;;;7.18;6.47;;;20.80;45.70;;;;;;5013467;28;20271;-67
2022/04/30 06:43:56;;;;;;;6.55;5.95;;;20.80;45.60;;;;;;5022168;28;20287;-68
2022/04/30 06:46:23;;;;;;;6.80;6.20;;;20.80;45.60;;;;;;5015935;28;20185;-67
2022/04/30 06:48:50;;;;;;;6.55;5.85;;;20.90;45.60;;;;;;4996696;28;20288;-67
2022/04/30 06:51:17;;;;;;;6.28;5.78;;;20.90;45.40;;;;;;4997034;28;20278;-67
2022/04/30 06:59:17;;;;;;;6.45;5.50;;;20.90;45.30;;;;;;5273252;23;20479;-71
2022/04/30 07:01:52;;;;;;;6.57;6.07;;;20.90;45.20;;;;;;5031067;28;20193;-69
2022/04/30 07:04:20;;;;;;;5.95;5.45;;;21.00;45.40;;;;;;5014839;28;20260;-70
2022/04/30 07:06:47;;;;;;;6.20;5.70;;;20.90;45.30;;;;;;5013615;28;20207;-70
2022/04/30 07:09:14;;;;;;;6.45;5.95;;;20.90;45.30;;;;;;5030528;28;20716;-72
2022/04/30 07:11:43;;;;;;;6.32;5.78;;;21.00;45.20;;;;;;5014466;28;20216;-72
2022/04/30 07:14:09;;;;;;;6.50;5.80;;;21.00;45.20;;;;;;5014405;28;20189;-72
2022/04/30 07:16:37;;;;;;;5.90;5.40;;;21.00;45.20;;;;;;5029290;28;20200;-72
2022/04/30 07:19:04;;;;;;;5.95;5.45;;;21.00;45.20;;;;;;5029514;28;20224;-72
2022/04/30 07:21:31;;;;;;;6.55;6.03;;;21.00;45.20;;;;;;5028954;28;20216;-72
2022/04/30 07:23:58;;;;;;;6.50;6.00;;;21.00;45.00;;;;;;5029564;28;20197;-72
2022/04/30 07:26:25;;;;;;;6.68;6.07;;;21.00;45.00;;;;;;5097135;23;20266;-72
2022/04/30 07:28:54;;;;;;;6.10;5.60;;;21.00;45.00;;;;;;4996905;28;20192;-72
2022/04/30 07:31:21;;;;;;;6.70;5.40;;;21.00;45.00;;;;;;5093614;23;20233;-72
2022/04/30 07:33:49;;;;;;;6.13;5.53;;;21.00;45.10;;;;;;5030160;23;20240;-70
2022/04/30 07:36:17;;;;;;;6.07;5.55;;;21.00;45.00;;;;;;5012995;28;20251;-70
2022/04/30 07:38:44;;;;;;;5.38;4.93;;;21.00;45.00;;;;;;5012627;28;20212;-70
2022/04/30 07:41:11;;;;;;;6.30;5.70;;;21.00;44.90;;;;;;4996337;28;20241;-70
2022/04/30 07:43:38;;;;;;;6.30;5.70;;;21.00;45.00;;;;;;4997006;28;20240;-70
2022/04/30 07:46:07;;;;;;;5.85;5.35;;;21.00;44.90;;;;;;5159335;23;20241;-70
2022/04/30 07:48:34;;;;;;;5.47;4.97;;;21.00;44.90;;;;;;5224511;23;20236;-70
2022/04/30 07:51:01;;;;;;;5.47;4.97;;;21.00;44.90;;;;;;5011899;28;20217;-70
2022/04/30 07:53:29;;;;;;;6.10;5.60;;;21.10;45.00;;;;;;4995700;28;20201;-70
2022/04/30 07:55:56;;;;;;;5.60;5.10;;;21.10;44.90;;;;;;4995891;28;20205;-70
2022/04/30 07:58:25;;;;;;;5.72;5.25;;;21.10;45.20;;;;;;4995732;28;20193;-70
2022/04/30 08:00:52;;;;;;;5.78;5.28;;;21.10;45.00;;;;;;4995549;28;20323;-70
2022/04/30 08:03:21;;;;;;;6.10;5.53;;;21.10;45.10;;;;;;4999033;28;20211;-70
2022/04/30 08:05:48;;;;;;;6.00;5.50;;;21.10;45.10;;;;;;4999347;28;20201;-70
2022/04/30 08:08:15;;;;;;;5.50;5.00;;;21.10;45.10;;;;;;4999298;28;20229;-70
2022/04/30 08:10:42;;;;;;;5.93;5.43;;;21.10;45.00;;;;;;4999315;28;20216;-70
2022/04/30 08:13:09;;;;;;;5.65;5.15;;;21.10;45.00;;;;;;4999305;28;20573;-72
2022/04/30 08:15:42;;;;;;;5.95;5.40;;;21.10;44.90;;;;;;4999596;28;20308;-70
2022/04/30 08:18:10;;;;;;;5.15;4.75;;;21.10;45.00;;;;;;4999754;28;20193;-71
2022/04/30 08:20:38;;;;;;;5.60;5.10;;;21.10;45.00;;;;;;4999131;28;20228;-71
2022/04/30 08:23:06;;;;;;;4.78;4.38;;;21.20;45.10;;;;;;4999160;28;20657;-72
2022/04/30 08:25:33;;;;;;;5.10;4.70;;;21.20;44.90;;;;;;4999298;28;20228;-71
2022/04/30 08:28:00;;;;;;;5.10;4.60;;;21.20;45.50;;;;;;4999343;28;20243;-71
2022/04/30 08:30:27;;;;;;;5.32;4.93;;;21.20;44.90;;;;;;4998959;28;20217;-71
2022/04/30 08:32:54;;;;;;;5.22;4.72;;;21.30;44.90;;;;;;4999051;28;20577;-71
2022/04/30 08:35:21;;;;;;;5.35;4.95;;;21.30;44.90;;;;;;4998867;28;20197;-71
2022/04/30 08:37:49;;;;;;;5.10;4.60;;;21.30;44.80;;;;;;4998977;28;20203;-73
2022/04/30 08:40:17;;;;;;;4.25;3.92;;;21.40;44.90;;;;;;4998755;28;20260;-71
2022/04/30 08:42:44;;;;;;;4.45;4.13;;;21.40;44.60;;;;;;4999056;28;20209;-72
2022/04/30 08:45:11;;;;;;;5.72;5.22;;;21.40;44.70;;;;;;4998867;28;20200;-71
2022/04/30 08:47:42;;;;;;;4.90;4.50;;;21.40;44.50;;;;;;4998658;28;20216;-72
2022/04/30 08:50:10;;;;;;;4.80;4.40;;;21.50;44.50;;;;;;4998623;28;20231;-71
2022/04/30 08:52:37;;;;;;;4.45;4.15;;;21.50;44.50;;;;;;5016165;28;20219;-72
2022/04/30 08:55:07;;;;;;;5.00;4.60;;;21.50;44.50;;;;;;4998587;28;20203;-71
2022/04/30 08:57:34;;;;;;;4.60;4.20;;;21.60;44.40;;;;;;4998898;28;20300;-71
2022/04/30 09:00:01;;;;;;;5.28;4.78;;;21.60;44.80;;;;;;4998464;28;20279;-72
2022/04/30 09:02:28;;;;;;;4.85;4.45;;;21.70;44.30;;;;;;4998467;28;20200;-72
2022/04/30 09:04:56;;;;;;;4.47;4.13;;;21.70;44.10;;;;;;4998571;28;20274;-72
2022/04/30 09:07:25;;;;;;;4.80;4.50;;;21.70;44.10;;;;;;4998421;28;20205;-72
2022/04/30 09:09:56;;;;;;;4.65;4.25;;;21.70;44.00;;;;;;4998634;28;20704;-72
2022/04/30 09:12:24;;;;;;;4.78;4.38;;;21.70;44.00;;;;;;4997973;28;20197;-71
2022/04/30 09:14:52;;;;;;;4.20;3.90;;;21.70;43.90;;;;;;4998235;28;20231;-72
2022/04/30 09:17:22;;;;;;;3.92;3.63;;;21.70;43.90;;;;;;4998622;28;20296;-71
2022/04/30 09:19:52;;;;;;;4.70;4.13;;;21.70;44.00;;;;;;4998769;28;20224;-73
2022/04/30 09:22:29;;;;;;;4.25;3.95;;;21.70;44.50;;;;;;4998413;28;20243;-72
2022/04/30 09:24:56;;;;;;;3.80;3.60;;;21.60;43.80;;;;;;4998154;28;20200;-72
2022/04/30 09:27:24;;;;;;;4.63;4.30;;;21.70;44.00;;;;;;4998057;28;20685;-71
2022/04/30 09:29:52;;;;;;;4.78;4.32;;;21.70;44.10;;;;;;4997953;28;20224;-72
2022/04/30 09:32:20;;;;;;;4.28;3.97;;;21.70;43.90;;;;;;4997777;28;20201;-72
2022/04/30 09:37:43;;;;;;;4.35;3.95;;;21.60;43.80;;;;;;4968387;28;20197;-72
2022/04/30 09:40:21;;;;;;;4.03;3.65;;;21.60;43.80;;;;;;4997566;28;20235;-71
2022/04/30 09:42:50;;;;;;;3.70;3.40;;;21.60;43.70;;;;;;4997773;28;20299;-72
2022/04/30 09:45:24;;;;;;;3.67;3.47;;;21.60;44.50;;;;;;4997931;28;20203;-71
2022/04/30 09:47:53;;;;;;;3.65;3.45;;;21.60;43.80;;;;;;4997367;28;20363;-72
2022/04/30 09:55:52;;;;;;;3.78;3.47;;;21.60;43.80;;;;;;4997670;28;20185;-72
2022/04/30 09:58:23;;;;;;;3.50;3.22;;;21.60;43.80;;;;;;4997786;28;20193;-72
2022/04/30 10:00:52;;;;;;;4.03;3.72;;;21.50;43.70;;;;;;4999652;28;20235;-73
2022/04/30 10:03:19;;;;;;;3.70;3.38;;;21.60;43.90;;;;;;5002586;28;20197;-71
2022/04/30 10:05:46;;;;;;;3.90;3.60;;;21.60;43.90;;;;;;5002513;28;20232;-73
2022/04/30 10:08:13;;;;;;;4.05;3.42;;;21.60;44.00;;;;;;5002200;28;20227;-73
2022/04/30 10:10:43;;;;;;;3.78;3.47;;;21.50;44.10;;;;;;4997902;28;20308;-72
2022/04/30 10:13:13;;;;;;;3.78;3.47;;;21.60;44.10;;;;;;4997423;28;20669;-72
2022/04/30 10:15:47;;;;;;;3.25;3.05;;;21.50;44.00;;;;;;4997152;28;20228;-72
2022/04/30 10:18:17;;;;;;;3.25;2.97;;;21.50;44.60;;;;;;4997061;28;20200;-71
2022/04/30 10:20:50;;;;;;;3.13;2.92;;;21.50;43.80;;;;;;4997216;28;20232;-72
2022/04/30 10:23:18;;;;;;;3.40;3.13;;;21.50;43.90;;;;;;4997077;28;20300;-71
2022/04/30 10:25:47;;;;;;;3.38;3.17;;;21.50;43.90;;;;;;4996418;28;20205;-71
2022/04/30 10:28:18;;;;;;;3.50;3.25;;;21.50;43.90;;;;;;4996954;28;20201;-72
2022/04/30 10:30:49;;;;;;;3.67;3.38;;;21.50;43.80;;;;;;4996808;28;20243;-72
2022/04/30 10:33:16;;;;;;;3.47;3.20;;;21.50;44.30;;;;;;4996676;28;20193;-72
2022/04/30 10:35:44;;;;;;;3.42;3.13;;;21.50;43.70;;;;;;4996907;28;20200;-72
2022/04/30 10:38:18;;;;;;;3.50;3.20;;;21.50;43.60;;;;;;4996734;28;20227;-71
2022/04/30 10:40:47;;;;;;;3.47;3.00;;;21.50;43.60;;;;;;4996841;28;20232;-72
2022/04/30 10:43:18;;;;;;;3.22;3.03;;;21.50;43.70;;;;;;4996599;28;20201;-71
2022/04/30 10:45:47;;;;;;;4.00;3.70;;;21.50;44.30;;;;;;4997416;28;20203;-73
2022/04/30 10:48:14;;;;;;;3.60;3.30;;;21.50;43.90;;;;;;4996725;28;20216;-73
2022/04/30 10:50:41;;;;;;;3.50;3.20;;;21.50;43.80;;;;;;4996353;28;20300;-73
2022/04/30 10:53:10;;;;;;;3.20;3.00;;;21.50;43.60;;;;;;4996397;28;20688;-72
2022/04/30 10:55:38;;;;;;;4.15;3.75;;;21.60;43.70;;;;;;4996674;28;20205;-71
2022/04/30 10:58:05;;;;;;;3.20;3.00;;;21.50;43.50;;;;;;4996977;28;20635;-70
2022/04/30 11:00:33;;;;;;;3.50;3.17;;;21.60;43.70;;;;;;4996516;28;20220;-70
2022/04/30 11:03:11;;;;;;;3.25;3.05;;;21.60;44.30;;;;;;4996281;28;20284;-70
2022/04/30 11:05:39;;;;;;;3.10;2.90;;;21.60;43.60;;;;;;4996342;28;20302;-70
2022/04/30 11:08:06;;;;;;;3.28;3.08;;;21.70;43.70;;;;;;4996101;28;20284;-70
2022/04/30 11:10:33;;;;;;;3.15;2.90;;;21.70;43.60;;;;;;4996420;28;20213;-70
2022/04/30 11:13:05;;;;;;;3.30;3.10;;;21.80;43.50;;;;;;4996238;28;20205;-70
2022/04/30 11:15:32;;;;;;;3.10;2.90;;;21.80;43.50;;;;;;4996305;28;20250;-70
2022/04/30 11:17:59;;;;;;;3.00;2.78;;;21.90;43.40;;;;;;4996158;28;20303;-70
2022/04/30 11:20:28;;;;;;;3.05;2.85;;;21.90;43.50;;;;;;4996072;28;20224;-70
2022/04/30 11:22:56;;;;;;;3.15;2.95;;;21.90;44.00;;;;;;4996072;28;20205;-70
2022/04/30 11:25:23;;;;;;;2.88;2.60;;;21.90;43.40;;;;;;4996112;28;20196;-70
2022/04/30 11:27:50;;;;;;;2.60;2.47;;;21.90;43.20;;;;;;4995985;28;20204;-72
2022/04/30 11:30:20;;;;;;;2.70;2.50;;;22.00;43.20;;;;;;4996037;28;20299;-70
2022/04/30 11:32:49;;;;;;;2.65;2.45;;;22.00;43.20;;;;;;4995977;28;20201;-70
2022/04/30 11:35:17;;;;;;;2.42;2.30;;;22.00;43.60;;;;;;4996103;28;20197;-70
2022/04/30 11:37:45;;;;;;;2.42;2.22;;;22.00;42.80;;;;;;5000565;28;20197;-70
2022/04/30 11:40:13;;;;;;;2.40;2.30;;;22.00;42.80;;;;;;4999990;28;20244;-70
2022/04/30 11:42:40;;;;;;;2.53;2.30;;;22.00;43.00;;;;;;5000008;28;20196;-70
2022/04/30 11:45:08;;;;;;;2.25;2.15;;;22.00;43.00;;;;;;5000114;28;20246;-70
2022/04/30 11:50:17;;;;;;;2.60;2.40;;;22.10;43.00;;;;;;5116062;23;20267;-61
2022/04/30 11:52:45;;;;;;;2.40;2.30;;;22.10;43.00;;;;;;5124144;23;20687;-71
2022/04/30 11:55:13;;;;;;;2.50;2.30;;;22.10;43.20;;;;;;5013102;28;20220;-69
2022/04/30 11:57:42;;;;;;;4.00;2.33;;;22.10;43.10;;;;;;5125770;23;20299;-68
2022/04/30 12:00:10;;;;;;;2.80;2.10;;;22.20;43.30;;;;;;4996235;28;20682;-68
2022/04/30 12:02:40;;;;;;;2.40;2.20;;;22.20;43.00;;;;;;5012766;28;20192;-69
2022/04/30 12:07:48;;;;;;;2.60;2.40;;;22.20;43.00;;;;;;4980721;28;20231;-72
2022/04/30 12:10:17;;;;;;;2.70;2.40;;;22.30;43.20;;;;;;4996284;28;20221;-72
2022/04/30 12:12:44;;;;;;;2.50;2.30;;;22.30;43.10;;;;;;4996372;28;20257;-72
2022/04/30 12:15:18;;;;;;;2.55;2.40;;;22.30;43.10;;;;;;5013571;28;20201;-71
2022/04/30 12:17:45;;;;;;;2.58;2.38;;;22.30;43.30;;;;;;5178847;23;20240;-71
2022/04/30 12:25:47;;;;;;;2.97;2.67;;;22.40;43.20;;;;;;5084201;23;20278;-73
2022/04/30 12:28:15;;;;;;;2.67;2.47;;;22.40;43.20;;;;;;5202981;23;20204;-71
2022/04/30 12:30:51;;;;;;;2.65;2.45;;;22.40;43.20;;;;;;5137496;23;20337;-73
2022/04/30 12:33:19;;;;;;;2.83;2.17;;;22.50;43.60;;;;;;5080763;23;20232;-73
2022/04/30 12:35:47;;;;;;;3.33;2.40;;;22.50;43.40;;;;;;5015276;28;20200;-72
2022/04/30 12:38:16;;;;;;;2.47;2.30;;;22.50;43.60;;;;;;5014984;28;20228;-72
2022/04/30 12:40:44;;;;;;;2.30;2.20;;;22.50;43.40;;;;;;5265706;23;20229;-71
2022/04/30 12:43:11;;;;;;;3.28;2.40;;;22.50;43.40;;;;;;5012041;28;20225;-71
2022/04/30 12:45:38;;;;;;;2.35;2.22;;;22.50;43.20;;;;;;5013049;28;20688;-72
2022/04/30 12:48:06;;;;;;;2.20;2.10;;;22.50;44.10;;;;;;4995029;28;20582;-72
2022/04/30 12:50:35;;;;;;;2.63;2.10;;;22.50;43.70;;;;;;5100883;23;20213;-72
2022/04/30 12:53:03;;;;;;;2.70;2.47;;;22.50;43.60;;;;;;5014967;28;20284;-71
2022/04/30 12:55:31;;;;;;;2.45;2.35;;;22.60;43.70;;;;;;5015178;28;20196;-71
2022/04/30 12:57:59;;;;;;;3.03;2.50;;;22.60;43.70;;;;;;5061333;23;22446;-70
2022/04/30 13:00:26;;;;;;;2.30;2.20;;;22.60;43.70;;;;;;5021511;23;20316;-71
2022/04/30 13:02:53;;;;;;;2.70;2.50;;;22.50;43.70;;;;;;4996814;28;20281;-71
2022/04/30 13:05:20;;;;;;;2.45;2.25;;;22.50;44.50;;;;;;4995580;28;20205;-71
2022/04/30 13:07:47;;;;;;;2.72;2.45;;;22.40;43.90;;;;;;4995272;28;20312;-72
2022/04/30 13:15:46;;;;;;;2.70;2.40;;;22.40;43.70;;;;;;4990196;23;20237;-73
2022/04/30 13:18:13;;;;;;;2.50;2.30;;;22.30;43.90;;;;;;4959384;28;20229;-73
2022/04/30 13:20:40;;;;;;;2.85;2.55;;;22.30;43.90;;;;;;4974833;28;20241;-73
2022/04/30 13:23:07;;;;;;;2.33;2.10;;;22.30;43.70;;;;;;4959656;28;20198;-73
2022/04/30 13:25:34;;;;;;;2.40;2.15;;;22.30;43.60;;;;;;4959140;28;20301;-73
2022/04/30 13:28:03;;;;;;;2.40;2.20;;;22.30;43.50;;;;;;4975384;28;20202;-73
2022/04/30 13:30:30;;;;;;;2.22;2.00;;;22.30;43.40;;;;;;4960716;28;20229;-73
2022/04/30 13:32:58;;;;;;;2.78;2.58;;;22.30;43.20;;;;;;4975437;28;20595;-73
2022/04/30 13:35:25;;;;;;;2.75;2.50;;;22.40;43.30;;;;;;4975182;28;20205;-72
2022/04/30 13:37:56;;;;;;;2.60;2.40;;;22.30;43.40;;;;;;5179322;23;20230;-71
2022/04/30 13:40:22;;;;;;;2.80;2.60;;;22.40;43.30;;;;;;5066944;23;20229;-71
2022/04/30 13:42:49;;;;;;;3.45;2.92;;;22.40;43.20;;;;;;5031827;23;20233;-72